PHNG Airport (Kaneohe Bay Mcas (Marion E Carl Field)) Information

FAA: NGF - ICAO: PHNG

PHNG Airport Location

State Hawaii
County Honolulu
City Kaneohe
PHNG Airport is 2 miles southwest of Kaneohe, HI.
Latitude 21-27-01.6400N
Longitude 157-46-04.6150W
Elevation 23ft

PHNG Airport METARs

METAR PHNG 200457Z 05011KT 10SM CLR 24/18 A3002 RMK AO2 SLP162 T02440178 $
Altimeter 30.02"
Temperature 24.4°C (75.9°F)
Wind 50° at 11KT
Clouds Skies are clear.
Visibility 10.0mi
Time observed: 2021-10-20T04:57:00Z

PHNG Airport Details

Status Operational
Activation September 1946
Ownership Military - Navy
Usage Private
Chart HAWAIIAN ISLANDS
ATC on-site Yes
Beacon schedule sunset-sunrise
Beacon color split clear green

PHNG Airport Contacts

Owner US NAVY
Owner address OCEANOGRAPHIC OFC - CODE 3142, WASHINGTON, DC 20373
Owner phone N/A
Manager CHAD WIGGINS
Manager address PO BOX 1056, KAMUELA, HI 96743
Manager phone 808-756-2080

PHNG Airport (Kaneohe Bay Mcas (Marion E Carl Field)) Radio Frequencies

PHNG (Airport) Radio Frequencies

UNICOM N/A
Common traffic advisory frequency (CTAF) 120.7